createdAt,value
2019-03-27T00:02:24.993Z,45.12
2019-03-27T00:04:53.867Z,44.70
2019-03-27T00:07:22.744Z,46.73
2019-03-27T00:09:51.636Z,38.75
2019-03-27T00:12:20.516Z,50.40
2019-03-27T00:14:49.479Z,42.08
2019-03-27T00:17:18.422Z,45.98
2019-03-27T00:19:47.327Z,46.28
2019-03-27T00:22:16.441Z,48.78
2019-03-27T00:24:45.324Z,45.78
2019-03-27T00:27:14.197Z,51.08
2019-03-27T00:29:43.059Z,55.58
2019-03-27T00:32:12.208Z,48.42
2019-03-27T00:34:41.075Z,47.53
2019-03-27T00:37:09.954Z,48.58
2019-03-27T00:39:39.795Z,44.23
2019-03-27T00:42:08.672Z,43.15
2019-03-27T00:44:37.632Z,42.60
2019-03-27T00:47:06.652Z,42.55
2019-03-27T00:49:35.518Z,39.80
2019-03-27T00:52:04.397Z,44.93
2019-03-27T00:54:33.282Z,47.60
2019-03-27T00:57:03.123Z,44.88
2019-03-27T00:59:32.096Z,43.08
2019-03-27T01:02:01.229Z,43.10
2019-03-27T01:04:30.109Z,38.67
2019-03-27T01:06:59.000Z,38.35
2019-03-27T01:09:27.884Z,38.73
2019-03-27T01:11:56.761Z,35.00
2019-03-27T01:14:25.659Z,34.25
2019-03-27T01:16:54.777Z,42.00
2019-03-27T01:19:23.663Z,35.95
2019-03-27T01:21:52.555Z,38.98
2019-03-27T01:24:21.431Z,37.53
2019-03-27T01:26:50.548Z,46.88
2019-03-27T01:29:19.716Z,37.00
2019-03-27T01:31:48.624Z,43.08
2019-03-27T01:34:17.518Z,54.13
2019-03-27T01:36:46.418Z,52.25
2019-03-27T01:39:15.295Z,50.58
2019-03-27T01:41:44.175Z,53.80
2019-03-27T01:44:13.061Z,45.28
2019-03-27T01:46:41.958Z,53.75
2019-03-27T01:49:10.841Z,57.85
2019-03-27T01:51:39.734Z,52.95
2019-03-27T01:54:08.844Z,54.18
2019-03-27T01:56:37.740Z,42.98
2019-03-27T01:59:06.616Z,44.38
2019-03-27T02:01:35.484Z,48.75
2019-03-27T02:04:04.357Z,54.70
2019-03-27T02:06:33.249Z,55.23
2019-03-27T02:09:02.116Z,47.17
2019-03-27T02:11:32.612Z,48.02
2019-03-27T02:14:01.773Z,52.95
2019-03-27T02:16:30.673Z,47.78
2019-03-27T02:18:59.541Z,51.95
2019-03-27T02:21:28.427Z,47.75
2019-03-27T02:23:57.300Z,50.75
2019-03-27T02:26:26.175Z,46.15
2019-03-27T02:28:55.070Z,49.53
2019-03-27T02:31:24.005Z,48.10
2019-03-27T02:33:52.889Z,56.25
2019-03-27T02:36:21.837Z,47.00
2019-03-27T02:38:51.679Z,48.38
2019-03-27T02:41:20.594Z,58.80
2019-03-27T02:43:49.503Z,61.35
2019-03-27T02:46:24.921Z,56.63
2019-03-27T02:48:50.958Z,59.38
2019-03-27T02:51:19.853Z,52.43
2019-03-27T02:53:48.733Z,49.42
2019-03-27T02:56:17.643Z,56.95
2019-03-27T02:58:46.511Z,47.00
2019-03-27T03:01:15.387Z,46.35
2019-03-27T03:03:44.262Z,51.60
2019-03-27T03:06:13.148Z,50.17
2019-03-27T03:08:42.017Z,50.33
2019-03-27T03:11:11.837Z,54.05
2019-03-27T03:13:40.946Z,58.48
2019-03-27T03:16:09.834Z,60.58
2019-03-27T03:18:38.725Z,59.55
2019-03-27T03:21:07.604Z,57.98
2019-03-27T03:23:36.486Z,60.52
2019-03-27T03:26:05.614Z,62.83
2019-03-27T03:28:34.495Z,60.70
2019-03-27T03:31:03.361Z,60.10
2019-03-27T03:33:32.273Z,61.02
2019-03-27T03:36:01.178Z,60.75
2019-03-27T03:38:30.074Z,54.18
2019-03-27T03:40:59.005Z,57.27
2019-03-27T03:43:27.868Z,65.32
2019-03-27T03:45:56.756Z,67.72
2019-03-27T03:48:25.644Z,66.70
2019-03-27T03:50:55.816Z,65.08
2019-03-27T03:53:25.514Z,73.25
2019-03-27T03:55:54.445Z,74.15
2019-03-27T03:58:24.293Z,61.25
2019-03-27T04:00:53.345Z,66.33
2019-03-27T04:03:23.756Z,62.20
2019-03-27T04:05:52.677Z,59.70
2019-03-27T04:08:21.577Z,57.60
2019-03-27T04:10:50.441Z,62.13
2019-03-27T04:13:19.309Z,62.10
2019-03-27T04:15:48.272Z,70.08
2019-03-27T04:18:17.209Z,64.85
2019-03-27T04:20:46.324Z,68.57
2019-03-27T04:23:15.208Z,69.17
2019-03-27T04:26:08.450Z,80.77
2019-03-27T04:28:15.153Z,76.22
2019-03-27T04:30:44.038Z,69.77
2019-03-27T04:33:13.004Z,77.70
2019-03-27T04:35:41.904Z,73.22
2019-03-27T04:38:11.054Z,71.47
2019-03-27T04:40:40.171Z,75.65
2019-03-27T04:43:09.076Z,76.17
2019-03-27T04:45:37.953Z,70.28
2019-03-27T04:48:06.840Z,73.85
2019-03-27T04:50:35.715Z,76.82
2019-03-27T04:53:05.635Z,82.12
2019-03-27T04:55:34.600Z,76.95
2019-03-27T04:58:03.572Z,87.45
2019-03-27T05:00:32.440Z,88.67
2019-03-27T05:03:01.549Z,78.33
2019-03-27T05:05:30.748Z,80.17
2019-03-27T05:07:59.864Z,74.80
2019-03-27T05:10:28.748Z,72.72
2019-03-27T05:12:57.628Z,81.75
2019-03-27T05:15:26.520Z,83.25
2019-03-27T05:17:55.395Z,76.67
2019-03-27T05:20:24.260Z,77.72
2019-03-27T05:22:53.149Z,73.80
2019-03-27T05:25:22.282Z,75.20
2019-03-27T05:27:51.160Z,81.20
2019-03-27T05:30:26.607Z,72.22
2019-03-27T05:32:55.759Z,67.75
2019-03-27T05:35:24.637Z,77.22
2019-03-27T05:37:53.559Z,73.67
2019-03-27T05:40:22.468Z,67.10
2019-03-27T05:43:00.464Z,70.42
2019-03-27T05:45:22.011Z,74.12
2019-03-27T05:47:59.394Z,75.75
2019-03-27T05:50:21.740Z,67.62
2019-03-27T05:52:50.739Z,69.85
2019-03-27T05:55:19.601Z,65.25
2019-03-27T05:57:48.565Z,64.32
2019-03-27T06:00:18.201Z,65.35
2019-03-27T06:02:47.079Z,70.85
2019-03-27T06:05:15.984Z,69.53
2019-03-27T06:07:44.872Z,61.80
2019-03-27T06:10:16.365Z,63.83
2019-03-27T06:12:44.761Z,69.85
2019-03-27T06:15:13.660Z,65.60
2019-03-27T06:17:42.610Z,66.77
2019-03-27T06:20:11.577Z,65.05
2019-03-27T06:22:40.490Z,66.60
2019-03-27T06:25:09.558Z,66.85
2019-03-27T06:27:39.869Z,59.77
2019-03-27T06:30:09.438Z,56.35
2019-03-27T06:32:38.329Z,58.75
2019-03-27T06:35:07.391Z,54.93
2019-03-27T06:37:36.577Z,52.20
2019-03-27T06:40:06.324Z,56.33
2019-03-27T06:42:35.279Z,60.20
2019-03-27T06:45:04.928Z,48.85
2019-03-27T06:47:34.026Z,45.75
2019-03-27T06:50:03.302Z,49.20
2019-03-27T06:52:32.161Z,45.05
2019-03-27T06:55:01.261Z,41.55
2019-03-27T06:57:30.120Z,46.30
2019-03-27T06:59:59.006Z,47.65
2019-03-27T07:02:29.014Z,40.67
2019-03-27T07:04:58.147Z,44.75
2019-03-27T07:07:27.016Z,41.60
2019-03-27T07:09:55.868Z,35.23
2019-03-27T07:12:25.006Z,36.30
2019-03-27T07:14:53.867Z,34.43
2019-03-27T07:17:22.743Z,35.30
2019-03-27T07:19:51.603Z,31.48
2019-03-27T07:22:20.479Z,32.48
2019-03-27T07:24:50.259Z,34.65
2019-03-27T07:27:19.147Z,36.85
2019-03-27T07:29:47.996Z,34.80
2019-03-27T07:32:16.869Z,37.20
2019-03-27T07:34:45.952Z,42.48
2019-03-27T07:37:14.817Z,42.60
2019-03-27T07:39:43.692Z,44.83
2019-03-27T07:42:12.563Z,45.60
2019-03-27T07:44:41.412Z,37.53
2019-03-27T07:47:10.279Z,33.10
2019-03-27T07:49:39.141Z,32.33
2019-03-27T07:52:08.074Z,43.45
2019-03-27T07:54:36.999Z,31.17
2019-03-27T07:57:07.820Z,30.97
2019-03-27T07:59:36.671Z,27.10
2019-03-27T08:02:05.701Z,25.55
2019-03-27T08:04:34.798Z,29.18
2019-03-27T08:07:03.952Z,28.50
2019-03-27T08:09:32.812Z,28.35
2019-03-27T08:12:01.893Z,28.98
2019-03-27T08:14:31.017Z,21.87
2019-03-27T08:17:00.123Z,28.38
2019-03-27T08:19:29.055Z,23.15
2019-03-27T08:21:57.915Z,22.55
2019-03-27T08:24:26.790Z,21.45
2019-03-27T08:26:55.651Z,23.35
2019-03-27T08:29:24.511Z,26.93
2019-03-27T08:31:53.383Z,28.47
2019-03-27T08:34:22.247Z,23.67
2019-03-27T08:36:51.119Z,19.70
2019-03-27T08:39:19.979Z,22.40
2019-03-27T08:41:48.847Z,19.62
2019-03-27T08:44:17.951Z,17.25
2019-03-27T08:46:46.803Z,19.02
2019-03-27T08:49:21.851Z,16.37
2019-03-27T08:51:47.515Z,16.42
2019-03-27T08:54:16.611Z,20.25
2019-03-27T08:56:45.464Z,13.80
2019-03-27T08:59:14.323Z,16.32
2019-03-27T09:01:43.191Z,15.08
2019-03-27T09:04:12.079Z,17.10
2019-03-27T09:06:40.936Z,17.15
2019-03-27T09:09:09.867Z,17.05
2019-03-27T09:11:38.984Z,15.80
2019-03-27T09:14:07.851Z,18.80
2019-03-27T09:16:36.727Z,18.87
2019-03-27T09:19:06.772Z,19.32
2019-03-27T09:21:35.628Z,18.35
2019-03-27T09:24:05.451Z,24.07
2019-03-27T09:26:34.332Z,22.50
2019-03-27T09:29:03.188Z,23.45
2019-03-27T09:31:43.945Z,23.22
2019-03-27T09:34:02.649Z,25.50
2019-03-27T09:36:31.507Z,23.27
2019-03-27T09:39:00.363Z,27.62
2019-03-27T09:41:29.229Z,22.67
2019-03-27T09:43:58.175Z,25.50
2019-03-27T09:46:27.040Z,20.92
2019-03-27T09:48:56.135Z,25.43
2019-03-27T09:51:25.224Z,24.72
2019-03-27T09:53:54.108Z,24.30
2019-03-27T09:56:22.964Z,18.20
2019-03-27T09:58:51.831Z,21.65
2019-03-27T10:01:20.693Z,21.12
2019-03-27T10:03:49.572Z,20.62
2019-03-27T10:06:18.432Z,17.67
2019-03-27T10:08:47.294Z,22.22
2019-03-27T10:11:16.155Z,20.60
2019-03-27T10:13:45.031Z,20.55
2019-03-27T10:16:13.891Z,22.17
2019-03-27T10:18:42.747Z,20.62
2019-03-27T10:21:11.865Z,21.60
2019-03-27T10:23:40.708Z,20.30
2019-03-27T10:26:09.580Z,20.85
2019-03-27T10:28:38.483Z,20.52
2019-03-27T10:31:07.351Z,19.05
2019-03-27T10:33:36.432Z,23.00
2019-03-27T10:36:05.296Z,22.13
2019-03-27T10:41:53.500Z,19.15
2019-03-27T10:44:22.356Z,21.55
2019-03-27T10:46:51.227Z,18.62
2019-03-27T10:49:20.098Z,21.17
2019-03-27T10:51:49.183Z,19.60
2019-03-27T10:54:18.897Z,21.57
2019-03-27T10:56:47.777Z,25.40
2019-03-27T10:59:16.637Z,20.95
2019-03-27T11:01:45.496Z,22.55
2019-03-27T11:04:14.356Z,22.40
2019-03-27T11:06:43.205Z,21.85
2019-03-27T11:09:12.085Z,23.95
2019-03-27T11:11:40.940Z,24.82
2019-03-27T11:14:09.796Z,21.75
2019-03-27T11:16:38.660Z,25.05
2019-03-27T11:19:07.527Z,22.55
2019-03-27T11:21:36.395Z,26.68
2019-03-27T11:24:05.255Z,24.25
2019-03-27T11:26:34.131Z,18.25
2019-03-27T11:29:02.995Z,23.92
2019-03-27T11:31:31.847Z,17.65
2019-03-27T11:34:00.731Z,20.37
2019-03-27T11:36:29.603Z,21.50
2019-03-27T11:38:58.452Z,21.62
2019-03-27T11:41:27.319Z,20.85
2019-03-27T11:43:56.213Z,17.12
2019-03-27T11:46:25.091Z,18.20
2019-03-27T11:48:53.949Z,20.62
2019-03-27T11:51:22.804Z,25.55
2019-03-27T11:53:51.671Z,18.55
2019-03-27T11:56:20.550Z,25.25
2019-03-27T11:58:49.436Z,20.75
2019-03-27T12:01:18.288Z,17.98
2019-03-27T12:03:47.140Z,21.55
2019-03-27T12:06:15.995Z,15.78
2019-03-27T12:08:44.856Z,17.07
2019-03-27T12:11:13.737Z,21.62
2019-03-27T12:13:42.594Z,18.62
2019-03-27T12:16:11.467Z,18.55
2019-03-27T12:18:40.323Z,17.67
2019-03-27T12:21:09.185Z,20.37
2019-03-27T12:23:38.044Z,20.17
2019-03-27T12:26:06.907Z,18.90
2019-03-27T12:28:36.029Z,24.02
2019-03-27T12:31:04.890Z,19.25
2019-03-27T12:33:33.747Z,18.65
2019-03-27T12:36:02.612Z,16.60
2019-03-27T12:38:31.483Z,17.48
2019-03-27T12:41:00.371Z,16.25
2019-03-27T12:43:29.270Z,19.57
2019-03-27T12:45:58.111Z,22.55
2019-03-27T12:48:27.010Z,16.40
2019-03-27T12:50:56.128Z,17.23
2019-03-27T12:53:25.009Z,16.73
2019-03-27T12:55:53.862Z,15.95
2019-03-27T12:58:22.724Z,19.42
2019-03-27T13:00:51.615Z,15.25
2019-03-27T13:03:20.491Z,21.57
2019-03-27T13:05:49.339Z,16.65
2019-03-27T13:08:18.199Z,17.75
2019-03-27T13:10:47.064Z,20.12
2019-03-27T13:13:16.888Z,20.20
2019-03-27T13:15:45.750Z,17.67
2019-03-27T13:18:14.619Z,18.17
2019-03-27T13:20:43.467Z,18.00
2019-03-27T13:23:12.326Z,18.62
2019-03-27T13:25:41.195Z,15.70
2019-03-27T13:28:10.138Z,14.30
2019-03-27T13:30:38.992Z,18.15
2019-03-27T13:33:07.931Z,18.27
2019-03-27T13:35:36.787Z,13.05
2019-03-27T13:38:05.655Z,15.38
2019-03-27T13:40:34.511Z,18.40
2019-03-27T13:43:03.364Z,18.82
2019-03-27T13:45:32.472Z,18.77
2019-03-27T13:48:01.562Z,16.82
2019-03-27T13:50:30.423Z,17.85
2019-03-27T13:53:00.274Z,17.65
2019-03-27T13:55:30.092Z,18.55
2019-03-27T13:57:58.952Z,17.60
2019-03-27T14:00:28.045Z,20.27
2019-03-27T14:02:56.920Z,20.08
2019-03-27T14:05:25.775Z,17.30
2019-03-27T14:07:54.695Z,19.05
2019-03-27T14:10:23.556Z,18.00
2019-03-27T14:12:52.411Z,18.20
2019-03-27T14:15:21.343Z,19.87
2019-03-27T14:17:50.200Z,16.70
2019-03-27T14:20:19.523Z,20.20
2019-03-27T14:22:49.345Z,18.92
2019-03-27T14:25:18.280Z,17.57
2019-03-27T14:27:47.135Z,21.55
2019-03-27T14:30:17.535Z,21.77
2019-03-27T14:32:46.389Z,17.35
2019-03-27T14:35:15.257Z,22.85
2019-03-27T14:37:45.085Z,18.23
2019-03-27T14:40:13.991Z,21.23
2019-03-27T14:42:42.853Z,19.90
2019-03-27T14:45:13.271Z,21.07
2019-03-27T14:47:42.151Z,17.25
2019-03-27T14:50:11.088Z,20.68
2019-03-27T14:52:39.951Z,19.10
2019-03-27T14:55:08.879Z,17.70
2019-03-27T14:57:37.735Z,19.48
2019-03-27T15:00:08.735Z,20.17
2019-03-27T15:02:37.747Z,18.82
2019-03-27T15:05:07.179Z,19.23
2019-03-27T15:07:36.055Z,21.30
2019-03-27T15:10:05.979Z,19.70
2019-03-27T15:12:35.087Z,22.00
2019-03-27T15:15:05.519Z,19.65
2019-03-27T15:17:34.467Z,16.90
2019-03-27T15:20:04.699Z,22.02
2019-03-27T15:22:33.566Z,20.68
2019-03-27T15:25:03.091Z,19.15
2019-03-27T15:27:31.969Z,19.85
2019-03-27T15:30:00.838Z,20.43
2019-03-27T15:32:29.695Z,18.10
2019-03-27T15:34:59.538Z,19.70
2019-03-27T15:37:28.394Z,20.92
2019-03-27T15:39:57.271Z,22.62
2019-03-27T15:42:26.135Z,20.30
2019-03-27T15:44:55.002Z,21.25
2019-03-27T15:47:24.100Z,23.92
2019-03-27T15:49:52.968Z,23.85
2019-03-27T15:52:35.752Z,26.85
2019-03-27T15:54:55.033Z,23.83
2019-03-27T15:57:23.895Z,23.47
2019-03-27T15:59:52.751Z,25.48
2019-03-27T16:02:21.628Z,23.07
2019-03-27T16:04:50.576Z,20.08
2019-03-27T16:07:20.479Z,19.45
2019-03-27T16:09:49.343Z,20.85
2019-03-27T16:12:18.204Z,20.92
2019-03-27T16:14:47.296Z,25.77
2019-03-27T16:17:16.155Z,22.17
2019-03-27T16:19:45.106Z,29.55
2019-03-27T16:22:14.021Z,20.85
2019-03-27T16:24:42.887Z,23.10
2019-03-27T16:27:11.748Z,22.48
2019-03-27T16:29:40.844Z,20.80
2019-03-27T16:32:09.883Z,27.73
2019-03-27T16:34:38.751Z,20.52
2019-03-27T16:37:07.620Z,27.32
2019-03-27T16:39:36.483Z,26.97
2019-03-27T16:42:06.318Z,28.15
2019-03-27T16:44:35.263Z,25.85
2019-03-27T16:47:04.123Z,24.43
2019-03-27T16:49:32.984Z,19.23
2019-03-27T16:52:02.192Z,19.48
2019-03-27T16:54:31.029Z,25.80
2019-03-27T16:56:59.891Z,29.37
2019-03-27T16:59:29.007Z,27.45
2019-03-27T17:01:57.893Z,29.60
2019-03-27T17:04:26.984Z,25.68
2019-03-27T17:06:55.839Z,31.48
2019-03-27T17:09:24.708Z,24.87
2019-03-27T17:11:53.572Z,25.23
2019-03-27T17:14:22.453Z,25.92
2019-03-27T17:16:51.311Z,25.97
2019-03-27T17:19:20.181Z,28.70
2019-03-27T17:21:49.040Z,31.05
2019-03-27T17:24:17.907Z,28.20
2019-03-27T17:26:46.852Z,27.20
2019-03-27T17:29:15.928Z,31.82
2019-03-27T17:31:44.784Z,29.63
2019-03-27T17:34:13.661Z,26.12
2019-03-27T17:36:43.486Z,31.65
2019-03-27T17:39:12.364Z,31.65
2019-03-27T17:41:41.280Z,31.87
2019-03-27T17:44:10.135Z,26.80
2019-03-27T17:46:38.997Z,25.30
2019-03-27T17:49:07.871Z,29.77
2019-03-27T17:51:36.736Z,28.38
2019-03-27T17:54:19.666Z,28.80
2019-03-27T17:56:36.184Z,32.48
2019-03-27T17:59:05.045Z,27.48
2019-03-27T18:01:34.216Z,27.02
2019-03-27T18:04:03.078Z,29.77
2019-03-27T18:06:32.178Z,30.50
2019-03-27T18:09:01.035Z,30.25
2019-03-27T18:11:31.539Z,32.55
2019-03-27T18:14:00.639Z,28.95
2019-03-27T18:16:29.732Z,27.85
2019-03-27T18:18:58.623Z,34.40
2019-03-27T18:21:27.492Z,33.55
2019-03-27T18:23:56.355Z,33.05
2019-03-27T18:26:25.211Z,32.08
2019-03-27T18:28:54.084Z,30.82
2019-03-27T18:31:22.944Z,38.92
2019-03-27T18:33:51.807Z,39.42
2019-03-27T18:36:20.663Z,38.85
2019-03-27T18:38:49.528Z,37.25
2019-03-27T18:41:18.387Z,36.00
2019-03-27T18:43:47.256Z,36.13
2019-03-27T18:46:16.131Z,35.63
2019-03-27T18:48:44.987Z,38.80
2019-03-27T18:51:13.856Z,42.03
2019-03-27T18:53:42.720Z,44.30
2019-03-27T18:56:11.804Z,45.30
2019-03-27T18:58:40.672Z,51.40
2019-03-27T19:01:09.536Z,54.42
2019-03-27T19:03:38.696Z,65.08
2019-03-27T19:06:07.803Z,55.60
2019-03-27T19:08:36.663Z,54.00
2019-03-27T19:11:05.528Z,59.60
2019-03-27T19:13:34.395Z,59.58
2019-03-27T19:16:03.262Z,54.83
2019-03-27T19:18:32.127Z,53.28
2019-03-27T19:21:01.027Z,55.78
2019-03-27T19:23:29.923Z,54.53
2019-03-27T19:25:58.787Z,63.23
2019-03-27T19:28:27.644Z,79.97
2019-03-27T19:30:56.591Z,109.92
2019-03-27T19:33:25.458Z,116.40
2019-03-27T19:35:54.319Z,123.80
2019-03-27T19:38:23.427Z,130.47
2019-03-27T19:40:52.295Z,130.75
2019-03-27T19:43:21.168Z,124.67
2019-03-27T19:45:50.122Z,125.67
2019-03-27T19:48:18.993Z,119.53
2019-03-27T19:50:47.859Z,108.17
2019-03-27T19:53:17.695Z,95.80
2019-03-27T19:55:46.564Z,106.22
2019-03-27T19:58:15.429Z,92.27
2019-03-27T20:00:44.289Z,67.58
2019-03-27T20:03:13.167Z,57.20
2019-03-27T20:05:42.024Z,48.52
2019-03-27T20:08:10.895Z,54.15
2019-03-27T20:10:39.749Z,51.60
2019-03-27T20:13:08.604Z,55.12
2019-03-27T20:15:37.687Z,47.27
2019-03-27T20:18:06.568Z,44.13
2019-03-27T20:20:36.552Z,49.83
2019-03-27T20:23:14.991Z,44.20
2019-03-27T20:25:36.153Z,48.90
2019-03-27T20:28:06.085Z,44.90
2019-03-27T20:30:35.197Z,39.13
2019-03-27T20:33:04.125Z,47.15
2019-03-27T20:35:32.991Z,45.45
2019-03-27T20:38:02.955Z,52.83
2019-03-27T20:40:31.815Z,53.15
2019-03-27T20:43:00.771Z,53.38
2019-03-27T20:45:29.868Z,50.38
2019-03-27T20:47:58.806Z,53.08
2019-03-27T20:50:27.652Z,52.33
2019-03-27T20:52:56.519Z,54.13
2019-03-27T20:55:30.401Z,55.08
2019-03-27T20:57:56.255Z,50.15
2019-03-27T21:00:25.184Z,50.70
2019-03-27T21:02:54.323Z,49.48
2019-03-27T21:05:23.181Z,53.48
2019-03-27T21:07:52.138Z,58.78
2019-03-27T21:10:20.995Z,56.85
2019-03-27T21:12:49.874Z,54.08
2019-03-27T21:15:18.960Z,54.75
2019-03-27T21:17:47.828Z,46.35
2019-03-27T21:20:16.691Z,45.67
2019-03-27T21:22:45.589Z,46.20
2019-03-27T21:25:14.439Z,49.75
2019-03-27T21:27:43.323Z,50.60
2019-03-27T21:30:12.262Z,52.10
2019-03-27T21:32:41.159Z,51.28
2019-03-27T21:35:10.208Z,42.80
2019-03-27T21:37:39.077Z,45.43
2019-03-27T21:40:08.120Z,43.15
2019-03-27T21:42:37.002Z,56.60
2019-03-27T21:45:06.839Z,48.63
2019-03-27T21:47:35.724Z,48.58
2019-03-27T21:50:07.798Z,49.85
2019-03-27T21:52:36.899Z,53.25
2019-03-27T21:55:06.568Z,51.30
2019-03-27T21:57:36.412Z,55.67
2019-03-27T22:00:05.939Z,47.33
2019-03-27T22:02:35.982Z,44.38
2019-03-27T22:05:06.035Z,46.28
2019-03-27T22:07:34.905Z,49.93
2019-03-27T22:10:05.251Z,49.40
2019-03-27T22:12:34.137Z,51.37
2019-03-27T22:15:03.573Z,53.42
2019-03-27T22:17:32.440Z,54.42
2019-03-27T22:20:01.332Z,46.65
2019-03-27T22:22:30.191Z,51.10
2019-03-27T22:24:59.047Z,50.85
2019-03-27T22:27:27.923Z,51.55
2019-03-27T22:29:56.772Z,56.48
2019-03-27T22:32:25.863Z,51.80
2019-03-27T22:34:54.719Z,51.85
2019-03-27T22:37:23.576Z,56.68
2019-03-27T22:39:52.451Z,59.73
2019-03-27T22:42:21.303Z,57.30
2019-03-27T22:44:50.179Z,63.38
2019-03-27T22:47:19.032Z,64.03
2019-03-27T22:49:47.903Z,64.15
2019-03-27T22:52:16.768Z,57.73
2019-03-27T22:54:45.631Z,54.38
2019-03-27T22:57:14.504Z,57.33
2019-03-27T22:59:43.588Z,54.85
2019-03-27T23:02:12.529Z,56.92
2019-03-27T23:04:41.379Z,56.90
2019-03-27T23:07:10.249Z,53.83
2019-03-27T23:09:39.115Z,53.85
2019-03-27T23:12:07.986Z,64.75
2019-03-27T23:14:36.847Z,57.67
2019-03-27T23:17:05.711Z,63.08
2019-03-27T23:19:34.606Z,55.58
2019-03-27T23:22:03.517Z,56.15
2019-03-27T23:24:32.402Z,62.25
2019-03-27T23:27:01.498Z,57.85
2019-03-27T23:29:30.351Z,65.12
2019-03-27T23:31:59.448Z,61.08
2019-03-27T23:34:28.611Z,64.03
2019-03-27T23:36:57.711Z,58.13
2019-03-27T23:39:26.876Z,68.70
2019-03-27T23:41:55.747Z,65.57
2019-03-27T23:44:24.603Z,67.45
2019-03-27T23:46:53.471Z,69.95
2019-03-27T23:49:22.397Z,72.62
2019-03-27T23:51:52.228Z,71.05
2019-03-27T23:54:21.311Z,72.72
2019-03-27T23:56:50.175Z,66.45
2019-03-27T23:59:19.036Z,68.20
